EKBI

Billund Airport

Billund, Denmark
METAR EKBI 181950Z AUTO 27006KT 7000NDV FEW024/// SCT031/// BKN100/// 01/01 Q1025
Observed Flight Rules
Dec-18 @ 19:50 UTC (30 minutes ago)
Wind Clouds
270° at 6 knots
  • Few at 2,400' AGL
  • Scattered at 3,100' AGL
  • Broken at 10,000' AGL
Temperatures Readings
Current 1°C / 34°F
Dewpoint 1°C / 34°F
Humidity 100%
Altimeter 30.27" Hg
Pressure 1025 hPa
Elevation 66
METAR EKBI 181950Z AUTO 27006KT 7000NDV FEW024/// SCT031/// BKN100/// 01/01 Q1025
Observed Flight Rules
Dec-18 @ 19:50 UTC
(30 minutes ago)
Wind
270° at 6 knots
Clouds
  • Few at 2,400' AGL
  • Scattered at 3,100' AGL
  • Broken at 10,000' AGL
Temperature Dewpoint
1°C / 34°F 1°C / 34°F
Humidity Altimeter Pressure
100% 30.27" Hg 1025 hPa